sensor_id;sensor_type;location;lat;lon;timestamp;P1;durP1;ratioP1;P2;durP2;ratioP2
18510;SDS011;9384;48.044;11.616;2022-08-11T00:30:38;6.53;;;3.90;;
18510;SDS011;9384;48.044;11.616;2022-08-11T00:33:06;5.23;;;3.80;;
18510;SDS011;9384;48.044;11.616;2022-08-11T00:35:33;4.13;;;3.83;;
18510;SDS011;9384;48.044;11.616;2022-08-11T00:38:00;5.83;;;3.90;;
18510;SDS011;9384;48.044;11.616;2022-08-11T00:40:32;4.23;;;3.93;;
18510;SDS011;9384;48.044;11.616;2022-08-11T00:43:06;3.97;;;3.73;;
18510;SDS011;9384;48.044;11.616;2022-08-11T00:45:40;4.03;;;3.67;;
18510;SDS011;9384;48.044;11.616;2022-08-11T00:48:10;3.27;;;3.17;;
18510;SDS011;9384;48.044;11.616;2022-08-11T00:50:43;4.20;;;3.90;;
18510;SDS011;9384;48.044;11.616;2022-08-11T00:53:27;3.63;;;3.40;;
18510;SDS011;9384;48.044;11.616;2022-08-11T00:56:17;4.23;;;3.70;;
18510;SDS011;9384;48.044;11.616;2022-08-11T00:58:58;5.00;;;3.83;;
18510;SDS011;9384;48.044;11.616;2022-08-11T01:01:39;5.40;;;4.03;;
18510;SDS011;9384;48.044;11.616;2022-08-11T01:12:39;4.53;;;3.90;;
18510;SDS011;9384;48.044;11.616;2022-08-11T01:15:32;4.90;;;3.77;;
18510;SDS011;9384;48.044;11.616;2022-08-11T01:29:26;4.37;;;3.97;;
18510;SDS011;9384;48.044;11.616;2022-08-11T01:32:13;3.87;;;3.67;;
18510;SDS011;9384;48.044;11.616;2022-08-11T01:34:54;4.63;;;3.93;;
18510;SDS011;9384;48.044;11.616;2022-08-11T01:40:23;3.63;;;3.43;;
18510;SDS011;9384;48.044;11.616;2022-08-11T01:43:00;3.57;;;3.37;;
18510;SDS011;9384;48.044;11.616;2022-08-11T01:45:46;3.70;;;3.50;;
18510;SDS011;9384;48.044;11.616;2022-08-11T01:48:15;4.00;;;3.80;;
18510;SDS011;9384;48.044;11.616;2022-08-11T01:51:02;3.30;;;3.00;;
18510;SDS011;9384;48.044;11.616;2022-08-11T01:53:33;3.60;;;3.40;;
18510;SDS011;9384;48.044;11.616;2022-08-11T01:56:05;4.10;;;3.80;;
18510;SDS011;9384;48.044;11.616;2022-08-11T01:58:38;4.10;;;3.70;;
18510;SDS011;9384;48.044;11.616;2022-08-11T02:01:10;5.20;;;4.33;;
18510;SDS011;9384;48.044;11.616;2022-08-11T02:03:42;5.17;;;4.40;;
18510;SDS011;9384;48.044;11.616;2022-08-11T02:06:15;5.60;;;4.03;;
18510;SDS011;9384;48.044;11.616;2022-08-11T02:09:05;4.30;;;4.00;;
18510;SDS011;9384;48.044;11.616;2022-08-11T02:11:34;4.23;;;3.90;;
18510;SDS011;9384;48.044;11.616;2022-08-11T02:14:14;4.27;;;3.80;;
18510;SDS011;9384;48.044;11.616;2022-08-11T02:16:47;4.53;;;4.13;;
18510;SDS011;9384;48.044;11.616;2022-08-11T02:19:19;4.60;;;3.73;;
18510;SDS011;9384;48.044;11.616;2022-08-11T02:22:08;5.73;;;3.90;;
18510;SDS011;9384;48.044;11.616;2022-08-11T02:24:58;3.47;;;3.27;;
18510;SDS011;9384;48.044;11.616;2022-08-11T02:27:29;4.00;;;3.70;;
18510;SDS011;9384;48.044;11.616;2022-08-11T02:30:02;4.50;;;3.77;;
18510;SDS011;9384;48.044;11.616;2022-08-11T02:32:33;4.27;;;4.00;;
18510;SDS011;9384;48.044;11.616;2022-08-11T02:35:21;4.57;;;4.10;;
18510;SDS011;9384;48.044;11.616;2022-08-11T02:37:52;3.70;;;3.53;;
18510;SDS011;9384;48.044;11.616;2022-08-11T02:40:26;5.77;;;4.17;;
18510;SDS011;9384;48.044;11.616;2022-08-11T02:43:00;5.40;;;3.50;;
18510;SDS011;9384;48.044;11.616;2022-08-11T02:45:33;4.03;;;3.80;;
18510;SDS011;9384;48.044;11.616;2022-08-11T02:48:03;4.43;;;4.13;;
18510;SDS011;9384;48.044;11.616;2022-08-11T02:50:51;6.33;;;3.40;;
18510;SDS011;9384;48.044;11.616;2022-08-11T02:53:25;6.40;;;3.90;;
18510;SDS011;9384;48.044;11.616;2022-08-11T02:55:57;4.60;;;4.23;;
18510;SDS011;9384;48.044;11.616;2022-08-11T02:58:31;4.60;;;4.07;;
18510;SDS011;9384;48.044;11.616;2022-08-11T03:01:02;4.23;;;3.83;;
18510;SDS011;9384;48.044;11.616;2022-08-11T03:03:36;4.63;;;4.33;;
18510;SDS011;9384;48.044;11.616;2022-08-11T03:06:11;4.53;;;4.13;;
18510;SDS011;9384;48.044;11.616;2022-08-11T03:08:46;3.80;;;3.63;;
18510;SDS011;9384;48.044;11.616;2022-08-11T03:11:17;4.00;;;3.87;;
18510;SDS011;9384;48.044;11.616;2022-08-11T03:14:07;4.33;;;4.03;;
18510;SDS011;9384;48.044;11.616;2022-08-11T03:16:55;4.30;;;3.90;;
18510;SDS011;9384;48.044;11.616;2022-08-11T03:19:25;4.10;;;3.80;;
18510;SDS011;9384;48.044;11.616;2022-08-11T03:21:58;6.70;;;4.20;;
18510;SDS011;9384;48.044;11.616;2022-08-11T03:24:30;4.03;;;3.73;;
18510;SDS011;9384;48.044;11.616;2022-08-11T03:27:02;4.10;;;3.80;;
18510;SDS011;9384;48.044;11.616;2022-08-11T03:29:32;4.37;;;4.10;;
18510;SDS011;9384;48.044;11.616;2022-08-11T03:32:01;4.20;;;3.90;;
18510;SDS011;9384;48.044;11.616;2022-08-11T03:34:31;4.53;;;4.23;;
18510;SDS011;9384;48.044;11.616;2022-08-11T03:40:15;5.93;;;3.80;;
18510;SDS011;9384;48.044;11.616;2022-08-11T03:43:08;4.50;;;4.13;;
18510;SDS011;9384;48.044;11.616;2022-08-11T03:45:41;5.73;;;4.40;;
18510;SDS011;9384;48.044;11.616;2022-08-11T03:48:20;4.27;;;4.07;;
18510;SDS011;9384;48.044;11.616;2022-08-11T03:50:56;4.90;;;4.50;;
18510;SDS011;9384;48.044;11.616;2022-08-11T03:53:34;7.00;;;3.83;;
18510;SDS011;9384;48.044;11.616;2022-08-11T03:56:12;4.70;;;4.30;;
18510;SDS011;9384;48.044;11.616;2022-08-11T03:58:56;4.17;;;3.80;;
18510;SDS011;9384;48.044;11.616;2022-08-11T04:01:40;4.53;;;4.20;;
18510;SDS011;9384;48.044;11.616;2022-08-11T04:04:18;4.40;;;4.10;;
18510;SDS011;9384;48.044;11.616;2022-08-11T04:07:03;4.47;;;4.17;;
18510;SDS011;9384;48.044;11.616;2022-08-11T04:12:41;4.10;;;3.70;;
18510;SDS011;9384;48.044;11.616;2022-08-11T04:15:14;4.17;;;3.70;;
18510;SDS011;9384;48.044;11.616;2022-08-11T04:20:53;4.43;;;4.13;;
18510;SDS011;9384;48.044;11.616;2022-08-11T04:23:30;6.97;;;4.20;;
18510;SDS011;9384;48.044;11.616;2022-08-11T04:26:21;4.80;;;4.10;;
18510;SDS011;9384;48.044;11.616;2022-08-11T04:29:09;6.83;;;4.10;;
18510;SDS011;9384;48.044;11.616;2022-08-11T04:31:43;7.40;;;4.20;;
18510;SDS011;9384;48.044;11.616;2022-08-11T04:34:35;6.60;;;4.30;;
18510;SDS011;9384;48.044;11.616;2022-08-11T04:37:10;4.57;;;4.20;;
18510;SDS011;9384;48.044;11.616;2022-08-11T04:46:04;5.20;;;4.13;;
18510;SDS011;9384;48.044;11.616;2022-08-11T04:48:38;5.17;;;3.77;;
18510;SDS011;9384;48.044;11.616;2022-08-11T04:51:38;6.03;;;4.43;;
18510;SDS011;9384;48.044;11.616;2022-08-11T04:54:31;4.50;;;4.10;;
18510;SDS011;9384;48.044;11.616;2022-08-11T04:57:27;4.97;;;4.57;;
18510;SDS011;9384;48.044;11.616;2022-08-11T05:00:17;4.67;;;4.27;;
18510;SDS011;9384;48.044;11.616;2022-08-11T05:06:07;4.70;;;4.30;;
18510;SDS011;9384;48.044;11.616;2022-08-11T05:08:41;4.97;;;4.57;;
18510;SDS011;9384;48.044;11.616;2022-08-11T05:11:25;5.93;;;4.23;;
18510;SDS011;9384;48.044;11.616;2022-08-11T05:14:02;5.60;;;4.40;;
18510;SDS011;9384;48.044;11.616;2022-08-11T05:16:57;4.53;;;4.23;;
18510;SDS011;9384;48.044;11.616;2022-08-11T05:19:44;5.23;;;4.83;;
18510;SDS011;9384;48.044;11.616;2022-08-11T05:22:30;5.73;;;4.53;;
18510;SDS011;9384;48.044;11.616;2022-08-11T05:25:17;5.67;;;4.80;;
18510;SDS011;9384;48.044;11.616;2022-08-11T05:28:04;9.13;;;4.87;;
18510;SDS011;9384;48.044;11.616;2022-08-11T05:30:49;5.97;;;4.97;;
18510;SDS011;9384;48.044;11.616;2022-08-11T05:33:41;6.13;;;4.70;;
18510;SDS011;9384;48.044;11.616;2022-08-11T05:36:29;5.23;;;4.70;;
18510;SDS011;9384;48.044;11.616;2022-08-11T05:39:03;5.30;;;4.80;;
18510;SDS011;9384;48.044;11.616;2022-08-11T05:41:49;4.90;;;4.50;;
18510;SDS011;9384;48.044;11.616;2022-08-11T05:44:34;4.87;;;4.47;;
18510;SDS011;9384;48.044;11.616;2022-08-11T05:47:22;6.70;;;5.10;;
18510;SDS011;9384;48.044;11.616;2022-08-11T05:50:09;5.07;;;4.77;;
18510;SDS011;9384;48.044;11.616;2022-08-11T05:52:54;5.53;;;5.00;;
18510;SDS011;9384;48.044;11.616;2022-08-11T05:55:41;5.43;;;5.00;;
18510;SDS011;9384;48.044;11.616;2022-08-11T05:58:30;11.17;;;5.10;;
18510;SDS011;9384;48.044;11.616;2022-08-11T06:00:58;5.07;;;4.70;;
18510;SDS011;9384;48.044;11.616;2022-08-11T06:03:26;5.97;;;4.90;;
18510;SDS011;9384;48.044;11.616;2022-08-11T06:05:54;7.13;;;5.27;;
18510;SDS011;9384;48.044;11.616;2022-08-11T06:08:26;5.43;;;4.93;;
18510;SDS011;9384;48.044;11.616;2022-08-11T06:10:58;5.93;;;5.30;;
18510;SDS011;9384;48.044;11.616;2022-08-11T06:13:26;8.67;;;5.47;;
18510;SDS011;9384;48.044;11.616;2022-08-11T06:15:53;6.27;;;5.10;;
18510;SDS011;9384;48.044;11.616;2022-08-11T06:18:21;5.53;;;5.03;;
18510;SDS011;9384;48.044;11.616;2022-08-11T06:20:49;5.43;;;4.87;;
18510;SDS011;9384;48.044;11.616;2022-08-11T06:23:17;5.53;;;5.13;;
18510;SDS011;9384;48.044;11.616;2022-08-11T06:25:47;4.30;;;4.03;;
18510;SDS011;9384;48.044;11.616;2022-08-11T06:28:16;6.27;;;4.40;;
18510;SDS011;9384;48.044;11.616;2022-08-11T06:30:46;12.27;;;4.40;;
18510;SDS011;9384;48.044;11.616;2022-08-11T06:33:14;5.80;;;4.17;;
18510;SDS011;9384;48.044;11.616;2022-08-11T06:35:47;11.43;;;3.97;;
18510;SDS011;9384;48.044;11.616;2022-08-11T06:38:22;4.57;;;3.87;;
18510;SDS011;9384;48.044;11.616;2022-08-11T06:40:52;4.50;;;4.10;;
18510;SDS011;9384;48.044;11.616;2022-08-11T06:43:37;6.43;;;4.43;;
18510;SDS011;9384;48.044;11.616;2022-08-11T06:46:11;4.40;;;4.00;;
18510;SDS011;9384;48.044;11.616;2022-08-11T06:48:41;4.03;;;3.70;;
18510;SDS011;9384;48.044;11.616;2022-08-11T06:51:09;5.50;;;4.17;;
18510;SDS011;9384;48.044;11.616;2022-08-11T06:53:39;7.63;;;3.70;;
18510;SDS011;9384;48.044;11.616;2022-08-11T06:56:06;4.50;;;4.10;;
18510;SDS011;9384;48.044;11.616;2022-08-11T06:58:53;5.23;;;4.17;;
18510;SDS011;9384;48.044;11.616;2022-08-11T07:01:40;5.87;;;3.97;;
18510;SDS011;9384;48.044;11.616;2022-08-11T07:04:10;9.13;;;3.83;;
18510;SDS011;9384;48.044;11.616;2022-08-11T07:06:42;4.67;;;4.27;;
18510;SDS011;9384;48.044;11.616;2022-08-11T07:09:36;5.07;;;3.70;;
18510;SDS011;9384;48.044;11.616;2022-08-11T07:12:32;5.50;;;3.40;;
18510;SDS011;9384;48.044;11.616;2022-08-11T07:15:22;6.70;;;3.73;;
18510;SDS011;9384;48.044;11.616;2022-08-11T07:18:07;3.97;;;3.67;;
18510;SDS011;9384;48.044;11.616;2022-08-11T07:20:52;5.50;;;3.67;;
18510;SDS011;9384;48.044;11.616;2022-08-11T07:23:39;4.47;;;3.60;;
18510;SDS011;9384;48.044;11.616;2022-08-11T07:26:24;5.90;;;4.20;;
18510;SDS011;9384;48.044;11.616;2022-08-11T07:29:09;6.13;;;3.60;;
18510;SDS011;9384;48.044;11.616;2022-08-11T07:31:40;4.07;;;3.83;;
18510;SDS011;9384;48.044;11.616;2022-08-11T07:34:12;6.20;;;3.87;;
18510;SDS011;9384;48.044;11.616;2022-08-11T07:36:45;6.90;;;4.00;;
18510;SDS011;9384;48.044;11.616;2022-08-11T07:39:14;6.77;;;3.63;;
18510;SDS011;9384;48.044;11.616;2022-08-11T07:41:44;4.83;;;4.40;;
18510;SDS011;9384;48.044;11.616;2022-08-11T07:44:13;4.00;;;3.70;;
18510;SDS011;9384;48.044;11.616;2022-08-11T07:46:42;5.43;;;3.70;;
18510;SDS011;9384;48.044;11.616;2022-08-11T07:49:28;4.03;;;3.77;;
18510;SDS011;9384;48.044;11.616;2022-08-11T07:52:14;6.03;;;4.17;;
18510;SDS011;9384;48.044;11.616;2022-08-11T07:54:59;5.37;;;4.03;;
18510;SDS011;9384;48.044;11.616;2022-08-11T07:57:26;6.30;;;4.00;;
18510;SDS011;9384;48.044;11.616;2022-08-11T08:00:12;3.63;;;3.37;;
18510;SDS011;9384;48.044;11.616;2022-08-11T08:02:59;4.73;;;3.40;;
18510;SDS011;9384;48.044;11.616;2022-08-11T08:05:44;5.67;;;3.40;;
18510;SDS011;9384;48.044;11.616;2022-08-11T08:08:30;3.67;;;3.47;;
18510;SDS011;9384;48.044;11.616;2022-08-11T08:11:15;3.80;;;3.50;;
18510;SDS011;9384;48.044;11.616;2022-08-11T08:14:00;4.43;;;3.27;;
18510;SDS011;9384;48.044;11.616;2022-08-11T08:16:45;4.40;;;3.30;;
18510;SDS011;9384;48.044;11.616;2022-08-11T08:19:32;5.13;;;3.37;;
18510;SDS011;9384;48.044;11.616;2022-08-11T08:22:00;3.67;;;3.27;;
18510;SDS011;9384;48.044;11.616;2022-08-11T08:24:27;3.20;;;3.00;;
18510;SDS011;9384;48.044;11.616;2022-08-11T08:26:56;3.87;;;3.03;;
18510;SDS011;9384;48.044;11.616;2022-08-11T08:29:24;4.67;;;2.80;;
18510;SDS011;9384;48.044;11.616;2022-08-11T08:32:09;4.57;;;3.23;;
18510;SDS011;9384;48.044;11.616;2022-08-11T08:34:38;5.60;;;3.00;;
18510;SDS011;9384;48.044;11.616;2022-08-11T08:37:09;3.90;;;3.40;;
18510;SDS011;9384;48.044;11.616;2022-08-11T08:39:36;3.57;;;2.70;;
18510;SDS011;9384;48.044;11.616;2022-08-11T08:42:05;3.33;;;3.10;;
18510;SDS011;9384;48.044;11.616;2022-08-11T08:44:35;3.40;;;3.20;;
18510;SDS011;9384;48.044;11.616;2022-08-11T08:47:05;4.73;;;3.23;;
18510;SDS011;9384;48.044;11.616;2022-08-11T08:49:33;3.17;;;3.07;;
18510;SDS011;9384;48.044;11.616;2022-08-11T08:52:03;2.93;;;2.83;;
18510;SDS011;9384;48.044;11.616;2022-08-11T08:54:31;3.53;;;3.20;;
18510;SDS011;9384;48.044;11.616;2022-08-11T08:57:01;3.80;;;3.07;;
18510;SDS011;9384;48.044;11.616;2022-08-11T08:59:30;3.83;;;3.00;;
18510;SDS011;9384;48.044;11.616;2022-08-11T09:01:59;3.13;;;2.90;;
18510;SDS011;9384;48.044;11.616;2022-08-11T09:04:26;4.60;;;3.07;;
18510;SDS011;9384;48.044;11.616;2022-08-11T09:06:55;3.63;;;2.80;;
18510;SDS011;9384;48.044;11.616;2022-08-11T09:09:24;4.17;;;2.77;;
18510;SDS011;9384;48.044;11.616;2022-08-11T09:11:51;3.97;;;3.47;;
18510;SDS011;9384;48.044;11.616;2022-08-11T09:14:20;3.50;;;2.87;;
18510;SDS011;9384;48.044;11.616;2022-08-11T09:16:47;3.27;;;3.00;;
18510;SDS011;9384;48.044;11.616;2022-08-11T09:19:17;5.43;;;2.83;;
18510;SDS011;9384;48.044;11.616;2022-08-11T09:21:44;3.20;;;2.70;;
18510;SDS011;9384;48.044;11.616;2022-08-11T09:24:37;3.60;;;2.97;;
18510;SDS011;9384;48.044;11.616;2022-08-11T09:27:22;3.33;;;2.97;;
18510;SDS011;9384;48.044;11.616;2022-08-11T09:29:49;3.63;;;2.97;;
18510;SDS011;9384;48.044;11.616;2022-08-11T09:32:18;3.13;;;2.87;;
18510;SDS011;9384;48.044;11.616;2022-08-11T09:34:45;3.20;;;2.83;;
18510;SDS011;9384;48.044;11.616;2022-08-11T09:37:13;3.10;;;2.83;;
18510;SDS011;9384;48.044;11.616;2022-08-11T09:40:11;3.20;;;2.90;;
18510;SDS011;9384;48.044;11.616;2022-08-11T09:42:54;4.33;;;2.93;;
18510;SDS011;9384;48.044;11.616;2022-08-11T09:45:39;5.30;;;3.20;;
18510;SDS011;9384;48.044;11.616;2022-08-11T09:48:06;3.63;;;3.10;;
18510;SDS011;9384;48.044;11.616;2022-08-11T09:50:34;6.10;;;2.80;;
18510;SDS011;9384;48.044;11.616;2022-08-11T09:53:03;4.10;;;2.40;;
18510;SDS011;9384;48.044;11.616;2022-08-11T09:55:32;4.30;;;2.77;;
18510;SDS011;9384;48.044;11.616;2022-08-11T09:58:00;6.00;;;2.90;;
18510;SDS011;9384;48.044;11.616;2022-08-11T10:00:38;3.90;;;2.60;;
18510;SDS011;9384;48.044;11.616;2022-08-11T10:03:07;3.60;;;2.50;;
18510;SDS011;9384;48.044;11.616;2022-08-11T10:05:36;3.00;;;2.70;;
18510;SDS011;9384;48.044;11.616;2022-08-11T10:08:21;6.90;;;2.70;;
18510;SDS011;9384;48.044;11.616;2022-08-11T10:10:50;3.17;;;2.35;;
18510;SDS011;9384;48.044;11.616;2022-08-11T10:13:18;2.53;;;2.42;;
18510;SDS011;9384;48.044;11.616;2022-08-11T10:15:50;3.78;;;2.80;;
18510;SDS011;9384;48.044;11.616;2022-08-11T10:18:18;2.63;;;2.42;;
18510;SDS011;9384;48.044;11.616;2022-08-11T10:21:05;3.10;;;2.50;;
18510;SDS011;9384;48.044;11.616;2022-08-11T10:23:33;2.47;;;2.38;;
18510;SDS011;9384;48.044;11.616;2022-08-11T10:26:20;2.28;;;2.17;;
18510;SDS011;9384;48.044;11.616;2022-08-11T10:29:06;3.90;;;2.30;;
18510;SDS011;9384;48.044;11.616;2022-08-11T10:31:49;3.03;;;2.72;;
18510;SDS011;9384;48.044;11.616;2022-08-11T10:34:34;8.65;;;2.75;;
18510;SDS011;9384;48.044;11.616;2022-08-11T10:37:01;3.33;;;2.50;;
18510;SDS011;9384;48.044;11.616;2022-08-11T10:39:35;3.58;;;2.33;;
18510;SDS011;9384;48.044;11.616;2022-08-11T10:42:05;4.90;;;2.25;;
18510;SDS011;9384;48.044;11.616;2022-08-11T10:44:50;2.65;;;2.45;;
18510;SDS011;9384;48.044;11.616;2022-08-11T10:47:18;3.20;;;2.20;;
18510;SDS011;9384;48.044;11.616;2022-08-11T10:50:00;2.30;;;2.20;;
18510;SDS011;9384;48.044;11.616;2022-08-11T10:52:46;2.75;;;2.65;;
18510;SDS011;9384;48.044;11.616;2022-08-11T10:55:32;3.58;;;2.65;;
18510;SDS011;9384;48.044;11.616;2022-08-11T10:58:19;4.22;;;2.22;;
18510;SDS011;9384;48.044;11.616;2022-08-11T11:01:04;5.20;;;2.67;;
18510;SDS011;9384;48.044;11.616;2022-08-11T11:03:32;2.72;;;2.45;;
18510;SDS011;9384;48.044;11.616;2022-08-11T11:06:02;2.95;;;2.38;;
18510;SDS011;9384;48.044;11.616;2022-08-11T11:08:31;2.63;;;2.40;;
18510;SDS011;9384;48.044;11.616;2022-08-11T11:11:17;6.53;;;2.92;;
18510;SDS011;9384;48.044;11.616;2022-08-11T11:13:48;2.90;;;2.35;;
18510;SDS011;9384;48.044;11.616;2022-08-11T11:16:34;2.88;;;2.17;;
18510;SDS011;9384;48.044;11.616;2022-08-11T11:19:21;2.45;;;2.25;;
18510;SDS011;9384;48.044;11.616;2022-08-11T11:21:51;2.63;;;2.42;;
18510;SDS011;9384;48.044;11.616;2022-08-11T11:24:40;2.53;;;2.25;;
18510;SDS011;9384;48.044;11.616;2022-08-11T11:27:10;2.33;;;2.22;;
18510;SDS011;9384;48.044;11.616;2022-08-11T11:30:00;2.33;;;2.10;;
18510;SDS011;9384;48.044;11.616;2022-08-11T11:32:32;4.30;;;2.40;;
18510;SDS011;9384;48.044;11.616;2022-08-11T11:35:10;2.60;;;2.35;;
18510;SDS011;9384;48.044;11.616;2022-08-11T11:37:39;2.60;;;2.10;;
18510;SDS011;9384;48.044;11.616;2022-08-11T11:40:08;2.65;;;2.45;;
18510;SDS011;9384;48.044;11.616;2022-08-11T11:42:36;2.20;;;2.00;;
18510;SDS011;9384;48.044;11.616;2022-08-11T11:45:05;2.00;;;1.90;;
18510;SDS011;9384;48.044;11.616;2022-08-11T11:47:33;7.80;;;2.20;;
18510;SDS011;9384;48.044;11.616;2022-08-11T11:50:01;3.65;;;2.10;;
18510;SDS011;9384;48.044;11.616;2022-08-11T11:52:29;2.22;;;2.03;;
18510;SDS011;9384;48.044;11.616;2022-08-11T11:54:56;2.05;;;2.05;;
18510;SDS011;9384;48.044;11.616;2022-08-11T11:57:24;2.08;;;1.95;;
18510;SDS011;9384;48.044;11.616;2022-08-11T12:00:11;2.38;;;2.22;;
18510;SDS011;9384;48.044;11.616;2022-08-11T12:02:57;4.90;;;1.98;;
18510;SDS011;9384;48.044;11.616;2022-08-11T12:05:25;2.92;;;2.05;;
18510;SDS011;9384;48.044;11.616;2022-08-11T12:07:53;3.88;;;2.13;;
18510;SDS011;9384;48.044;11.616;2022-08-11T12:10:42;2.08;;;1.90;;
18510;SDS011;9384;48.044;11.616;2022-08-11T12:13:10;2.08;;;1.98;;
18510;SDS011;9384;48.044;11.616;2022-08-11T12:15:57;2.10;;;2.00;;
18510;SDS011;9384;48.044;11.616;2022-08-11T12:18:28;2.80;;;2.20;;
18510;SDS011;9384;48.044;11.616;2022-08-11T12:20:56;2.10;;;2.00;;
18510;SDS011;9384;48.044;11.616;2022-08-11T12:23:23;2.00;;;1.90;;
18510;SDS011;9384;48.044;11.616;2022-08-11T12:26:08;2.03;;;1.90;;
18510;SDS011;9384;48.044;11.616;2022-08-11T12:28:53;4.97;;;2.05;;
18510;SDS011;9384;48.044;11.616;2022-08-11T12:31:23;5.25;;;1.83;;
18510;SDS011;9384;48.044;11.616;2022-08-11T12:33:50;3.05;;;2.10;;
18510;SDS011;9384;48.044;11.616;2022-08-11T12:36:20;1.70;;;1.60;;
18510;SDS011;9384;48.044;11.616;2022-08-11T12:38:48;2.50;;;1.95;;
18510;SDS011;9384;48.044;11.616;2022-08-11T12:41:16;1.63;;;1.63;;
18510;SDS011;9384;48.044;11.616;2022-08-11T12:44:01;1.83;;;1.70;;
18510;SDS011;9384;48.044;11.616;2022-08-11T12:47:02;1.77;;;1.77;;
18510;SDS011;9384;48.044;11.616;2022-08-11T12:49:30;2.13;;;1.92;;
18510;SDS011;9384;48.044;11.616;2022-08-11T12:52:18;2.22;;;2.03;;
18510;SDS011;9384;48.044;11.616;2022-08-11T12:54:53;1.90;;;1.80;;
18510;SDS011;9384;48.044;11.616;2022-08-11T12:57:24;4.30;;;2.05;;
18510;SDS011;9384;48.044;11.616;2022-08-11T13:00:10;1.80;;;1.75;;
18510;SDS011;9384;48.044;11.616;2022-08-11T13:02:56;3.30;;;1.77;;
18510;SDS011;9384;48.044;11.616;2022-08-11T13:05:42;2.03;;;1.92;;
18510;SDS011;9384;48.044;11.616;2022-08-11T13:08:09;1.90;;;1.80;;
18510;SDS011;9384;48.044;11.616;2022-08-11T13:10:37;1.95;;;1.95;;
18510;SDS011;9384;48.044;11.616;2022-08-11T13:13:22;2.90;;;1.90;;
18510;SDS011;9384;48.044;11.616;2022-08-11T13:15:50;2.75;;;2.10;;
18510;SDS011;9384;48.044;11.616;2022-08-11T13:18:20;3.00;;;1.63;;
18510;SDS011;9384;48.044;11.616;2022-08-11T13:20:48;1.77;;;1.77;;
18510;SDS011;9384;48.044;11.616;2022-08-11T13:23:17;3.72;;;1.88;;
18510;SDS011;9384;48.044;11.616;2022-08-11T13:25:45;1.77;;;1.77;;
18510;SDS011;9384;48.044;11.616;2022-08-11T13:28:12;2.90;;;2.00;;
18510;SDS011;9384;48.044;11.616;2022-08-11T13:30:40;5.97;;;1.60;;
18510;SDS011;9384;48.044;11.616;2022-08-11T13:33:26;2.95;;;1.85;;
18510;SDS011;9384;48.044;11.616;2022-08-11T13:35:53;1.75;;;1.50;;
18510;SDS011;9384;48.044;11.616;2022-08-11T13:38:22;2.45;;;1.58;;
18510;SDS011;9384;48.044;11.616;2022-08-11T13:40:50;1.90;;;1.80;;
18510;SDS011;9384;48.044;11.616;2022-08-11T13:43:19;4.85;;;2.10;;
18510;SDS011;9384;48.044;11.616;2022-08-11T13:45:47;2.45;;;1.95;;
18510;SDS011;9384;48.044;11.616;2022-08-11T13:48:16;3.10;;;1.88;;
18510;SDS011;9384;48.044;11.616;2022-08-11T13:50:45;4.82;;;1.90;;
18510;SDS011;9384;48.044;11.616;2022-08-11T13:53:30;1.80;;;1.70;;
18510;SDS011;9384;48.044;11.616;2022-08-11T13:55:58;2.35;;;1.80;;
18510;SDS011;9384;48.044;11.616;2022-08-11T13:58:26;2.05;;;1.95;;
18510;SDS011;9384;48.044;11.616;2022-08-11T14:00:55;4.25;;;1.60;;
18510;SDS011;9384;48.044;11.616;2022-08-11T14:03:23;1.60;;;1.50;;
18510;SDS011;9384;48.044;11.616;2022-08-11T14:05:53;2.83;;;2.00;;
18510;SDS011;9384;48.044;11.616;2022-08-11T14:08:23;2.33;;;2.10;;
18510;SDS011;9384;48.044;11.616;2022-08-11T14:10:52;4.53;;;2.00;;
18510;SDS011;9384;48.044;11.616;2022-08-11T14:13:36;1.75;;;1.73;;
18510;SDS011;9384;48.044;11.616;2022-08-11T14:16:06;1.90;;;1.80;;
18510;SDS011;9384;48.044;11.616;2022-08-11T14:18:34;2.22;;;1.70;;
18510;SDS011;9384;48.044;11.616;2022-08-11T14:21:06;2.65;;;1.92;;
18510;SDS011;9384;48.044;11.616;2022-08-11T14:23:51;1.70;;;1.60;;
18510;SDS011;9384;48.044;11.616;2022-08-11T14:26:23;2.00;;;1.63;;
18510;SDS011;9384;48.044;11.616;2022-08-11T14:28:56;5.60;;;1.85;;
18510;SDS011;9384;48.044;11.616;2022-08-11T14:31:27;1.67;;;1.50;;
18510;SDS011;9384;48.044;11.616;2022-08-11T14:33:56;2.55;;;1.88;;
18510;SDS011;9384;48.044;11.616;2022-08-11T14:36:28;1.95;;;1.50;;
18510;SDS011;9384;48.044;11.616;2022-08-11T14:38:55;1.85;;;1.75;;
18510;SDS011;9384;48.044;11.616;2022-08-11T14:41:23;1.63;;;1.52;;
18510;SDS011;9384;48.044;11.616;2022-08-11T14:44:09;1.73;;;1.63;;
18510;SDS011;9384;48.044;11.616;2022-08-11T14:46:54;1.52;;;1.52;;
18510;SDS011;9384;48.044;11.616;2022-08-11T14:49:32;1.65;;;1.55;;
18510;SDS011;9384;48.044;11.616;2022-08-11T14:52:01;3.17;;;1.42;;
18510;SDS011;9384;48.044;11.616;2022-08-11T14:54:30;1.80;;;1.80;;
18510;SDS011;9384;48.044;11.616;2022-08-11T14:57:15;2.88;;;1.80;;
18510;SDS011;9384;48.044;11.616;2022-08-11T14:59:42;5.25;;;1.75;;
18510;SDS011;9384;48.044;11.616;2022-08-11T15:02:11;3.67;;;1.60;;
18510;SDS011;9384;48.044;11.616;2022-08-11T15:04:56;5.10;;;1.70;;
18510;SDS011;9384;48.044;11.616;2022-08-11T15:07:25;4.43;;;1.83;;
18510;SDS011;9384;48.044;11.616;2022-08-11T15:09:55;1.77;;;1.67;;
18510;SDS011;9384;48.044;11.616;2022-08-11T15:12:22;1.55;;;1.45;;
18510;SDS011;9384;48.044;11.616;2022-08-11T15:14:50;13.60;;;2.10;;
18510;SDS011;9384;48.044;11.616;2022-08-11T15:17:35;1.70;;;1.63;;
18510;SDS011;9384;48.044;11.616;2022-08-11T15:20:03;1.70;;;1.70;;
18510;SDS011;9384;48.044;11.616;2022-08-11T15:22:50;1.65;;;1.60;;
18510;SDS011;9384;48.044;11.616;2022-08-11T15:25:34;1.67;;;1.55;;
18510;SDS011;9384;48.044;11.616;2022-08-11T15:28:02;1.45;;;1.45;;
18510;SDS011;9384;48.044;11.616;2022-08-11T15:30:50;3.05;;;1.60;;
18510;SDS011;9384;48.044;11.616;2022-08-11T15:33:36;1.80;;;1.70;;
18510;SDS011;9384;48.044;11.616;2022-08-11T15:36:22;1.60;;;1.50;;
18510;SDS011;9384;48.044;11.616;2022-08-11T15:39:12;1.52;;;1.52;;
18510;SDS011;9384;48.044;11.616;2022-08-11T15:41:42;1.60;;;1.50;;
18510;SDS011;9384;48.044;11.616;2022-08-11T15:44:29;1.60;;;1.60;;
18510;SDS011;9384;48.044;11.616;2022-08-11T15:47:17;1.30;;;1.30;;
18510;SDS011;9384;48.044;11.616;2022-08-11T15:49:50;2.13;;;1.92;;
18510;SDS011;9384;48.044;11.616;2022-08-11T15:52:18;2.33;;;1.92;;
18510;SDS011;9384;48.044;11.616;2022-08-11T15:54:48;1.65;;;1.60;;
18510;SDS011;9384;48.044;11.616;2022-08-11T15:57:16;2.05;;;1.80;;
18510;SDS011;9384;48.044;11.616;2022-08-11T15:59:58;1.70;;;1.60;;
18510;SDS011;9384;48.044;11.616;2022-08-11T16:02:44;3.15;;;1.70;;
18510;SDS011;9384;48.044;11.616;2022-08-11T16:05:30;1.95;;;1.85;;
18510;SDS011;9384;48.044;11.616;2022-08-11T16:07:58;2.92;;;1.77;;
18510;SDS011;9384;48.044;11.616;2022-08-11T16:10:27;2.28;;;1.50;;
18510;SDS011;9384;48.044;11.616;2022-08-11T16:12:55;1.77;;;1.67;;
18510;SDS011;9384;48.044;11.616;2022-08-11T16:15:44;1.60;;;1.60;;
18510;SDS011;9384;48.044;11.616;2022-08-11T16:18:32;1.58;;;1.45;;
18510;SDS011;9384;48.044;11.616;2022-08-11T16:21:06;1.58;;;1.58;;
18510;SDS011;9384;48.044;11.616;2022-08-11T16:23:34;6.43;;;1.92;;
18510;SDS011;9384;48.044;11.616;2022-08-11T16:26:03;1.67;;;1.60;;
18510;SDS011;9384;48.044;11.616;2022-08-11T16:28:31;1.95;;;1.67;;
18510;SDS011;9384;48.044;11.616;2022-08-11T16:31:00;4.13;;;1.50;;
18510;SDS011;9384;48.044;11.616;2022-08-11T16:33:28;1.95;;;1.55;;
18510;SDS011;9384;48.044;11.616;2022-08-11T16:35:56;2.35;;;1.63;;
18510;SDS011;9384;48.044;11.616;2022-08-11T16:38:41;3.97;;;1.88;;
18510;SDS011;9384;48.044;11.616;2022-08-11T16:41:10;1.38;;;1.35;;
18510;SDS011;9384;48.044;11.616;2022-08-11T16:43:39;1.58;;;1.48;;
18510;SDS011;9384;48.044;11.616;2022-08-11T16:46:29;1.75;;;1.52;;
18510;SDS011;9384;48.044;11.616;2022-08-11T16:49:15;1.52;;;1.52;;
18510;SDS011;9384;48.044;11.616;2022-08-11T16:51:45;1.70;;;1.60;;